Terminal Aerodrome Forecast
Issued by NWS

Home | Current Version | Previous Version | Text Only | Print | Product List | Glossary On
Versions: 1 2 3 4 5 6 7 8 9 10 11 12 13 14 15 16 17 18
000
FTUS44 KLZK 221400 AAA
TAFHRO
TAF AMD
KHRO 221418Z 2214/2312 17011KT P6SM VCTS BKN018 OVC025CB
     FM221700 17010KT 4SM -SHRA OVC012
     FM230300 15011KT 3SM BR VCSH OVC007=

USA.gov is the U.S. government's official web portal to all federal, state and local government web resources and services.